createdAt,value
2023-06-07T00:01:38.687Z,10.80
2023-06-07T00:04:07.648Z,10.90
2023-06-07T00:06:35.381Z,11.00
2023-06-07T00:09:02.952Z,10.90
2023-06-07T00:11:30.554Z,10.90
2023-06-07T00:13:58.214Z,10.80
2023-06-07T00:16:25.850Z,10.60
2023-06-07T00:18:53.797Z,10.60
2023-06-07T00:21:21.689Z,10.60
2023-06-07T00:23:49.570Z,10.60
2023-06-07T00:26:17.232Z,10.60
2023-06-07T00:28:49.524Z,10.50
2023-06-07T00:31:17.233Z,10.50
2023-06-07T00:33:44.944Z,10.40
2023-06-07T00:36:12.564Z,10.40
2023-06-07T00:38:40.175Z,10.40
2023-06-07T00:41:07.753Z,10.40
2023-06-07T00:43:35.470Z,10.40
2023-06-07T00:46:05.213Z,10.40
2023-06-07T00:48:33.239Z,10.50
2023-06-07T00:51:01.396Z,10.50
2023-06-07T00:53:30.457Z,10.50
2023-06-07T00:55:59.111Z,10.50
2023-06-07T00:58:26.974Z,10.50
2023-06-07T01:00:55.681Z,10.50
2023-06-07T01:03:24.792Z,10.50
2023-06-07T01:05:53.153Z,10.40
2023-06-07T01:08:21.491Z,10.30
2023-06-07T01:10:50.115Z,10.40
2023-06-07T01:13:17.924Z,10.40
2023-06-07T01:15:46.176Z,10.40
2023-06-07T01:18:13.957Z,10.30
2023-06-07T01:20:49.857Z,10.40
2023-06-07T01:23:29.457Z,10.40
2023-06-07T01:25:59.721Z,10.50
2023-06-07T01:28:32.144Z,10.50
2023-06-07T01:31:01.939Z,10.50
2023-06-07T01:33:33.437Z,10.40
2023-06-07T01:36:04.095Z,10.20
2023-06-07T01:38:33.446Z,10.10
2023-06-07T01:41:03.001Z,10.10
2023-06-07T01:43:31.552Z,10.00
2023-06-07T01:46:00.225Z,10.00
2023-06-07T01:48:28.068Z,10.00
2023-06-07T01:50:55.788Z,10.10
2023-06-07T01:53:23.415Z,10.20
2023-06-07T01:55:59.796Z,10.20
2023-06-07T01:58:41.272Z,10.10
2023-06-07T02:01:34.887Z,10.10
2023-06-07T02:04:08.847Z,10.10
2023-06-07T02:06:41.318Z,10.20
2023-06-07T02:09:12.590Z,10.20
2023-06-07T02:11:42.183Z,10.10
2023-06-07T02:14:10.584Z,10.00
2023-06-07T02:16:38.381Z,10.00
2023-06-07T02:19:10.981Z,9.80
2023-06-07T02:21:51.367Z,9.80
2023-06-07T02:24:19.063Z,9.80
2023-06-07T02:26:46.662Z,9.80
2023-06-07T02:29:15.099Z,9.80
2023-06-07T02:31:42.849Z,9.90
2023-06-07T02:34:10.434Z,9.90
2023-06-07T02:36:41.438Z,9.90
2023-06-07T02:39:10.168Z,9.90
2023-06-07T02:41:37.823Z,9.80
2023-06-07T02:44:05.705Z,9.80
2023-06-07T02:46:33.375Z,9.80
2023-06-07T02:49:01.070Z,9.70
2023-06-07T02:51:30.854Z,9.70
2023-06-07T02:53:58.649Z,9.70
2023-06-07T02:56:30.486Z,9.70
2023-06-07T02:58:58.453Z,9.70
2023-06-07T03:01:32.378Z,9.80
2023-06-07T03:04:00.325Z,9.80
2023-06-07T03:06:30.666Z,9.60
2023-06-07T03:09:04.598Z,9.60
2023-06-07T03:11:35.295Z,9.60
2023-06-07T03:16:59.520Z,9.50
2023-06-07T03:19:27.452Z,9.50
2023-06-07T03:21:58.236Z,9.50
2023-06-07T03:24:25.873Z,9.40
2023-06-07T03:26:53.644Z,9.40
2023-06-07T03:29:21.423Z,9.40
2023-06-07T03:31:49.454Z,9.30
2023-06-07T03:34:19.713Z,9.40
2023-06-07T03:36:48.775Z,9.40
2023-06-07T03:39:18.251Z,9.40
2023-06-07T03:41:49.288Z,9.30
2023-06-07T03:44:22.268Z,9.30
2023-06-07T03:46:50.105Z,9.40
2023-06-07T03:49:17.783Z,9.50
2023-06-07T03:51:46.128Z,9.60
2023-06-07T03:54:14.870Z,9.70
2023-06-07T03:56:43.738Z,9.80
2023-06-07T03:59:14.198Z,9.90
2023-06-07T04:01:43.563Z,9.90
2023-06-07T04:04:11.766Z,9.80
2023-06-07T04:06:40.933Z,9.80
2023-06-07T04:09:09.575Z,9.80
2023-06-07T04:11:37.677Z,9.80
2023-06-07T04:14:06.054Z,9.80
2023-06-07T04:16:41.619Z,9.90
2023-06-07T04:19:09.747Z,9.90
2023-06-07T04:21:37.561Z,9.90
2023-06-07T04:24:07.033Z,10.00
2023-06-07T04:26:34.870Z,10.00
2023-06-07T04:29:02.708Z,10.10
2023-06-07T04:31:35.834Z,10.20
2023-06-07T04:34:07.195Z,10.30
2023-06-07T04:36:40.190Z,10.40
2023-06-07T04:39:14.575Z,10.30
2023-06-07T04:41:46.547Z,10.20
2023-06-07T04:44:28.881Z,10.20
2023-06-07T04:47:09.962Z,10.20
2023-06-07T04:49:40.460Z,10.30
2023-06-07T04:52:08.491Z,10.30
2023-06-07T04:54:38.174Z,10.30
2023-06-07T04:57:10.542Z,10.40
2023-06-07T04:59:44.153Z,10.50
2023-06-07T05:02:17.523Z,10.60
2023-06-07T05:04:46.046Z,10.70
2023-06-07T05:07:15.054Z,10.70
2023-06-07T05:09:47.276Z,10.90
2023-06-07T05:12:17.738Z,11.00
2023-06-07T05:14:46.451Z,11.00
2023-06-07T05:17:17.646Z,11.00
2023-06-07T05:19:45.252Z,11.10
2023-06-07T05:22:13.726Z,11.30
2023-06-07T05:24:41.413Z,11.60
2023-06-07T05:27:09.647Z,11.80
2023-06-07T05:29:37.318Z,12.00
2023-06-07T05:32:05.207Z,12.10
2023-06-07T05:34:32.916Z,12.20
2023-06-07T05:37:01.731Z,12.40
2023-06-07T05:39:30.009Z,12.50
2023-06-07T05:41:57.635Z,12.50
2023-06-07T05:44:25.528Z,12.50
2023-06-07T05:46:53.239Z,12.60
2023-06-07T05:49:21.388Z,12.60
2023-06-07T05:51:49.428Z,12.50
2023-06-07T05:54:17.561Z,12.40
2023-06-07T05:56:45.173Z,12.40
2023-06-07T05:59:12.989Z,12.50
2023-06-07T06:01:41.926Z,12.60
2023-06-07T06:04:09.843Z,12.70
2023-06-07T06:06:39.347Z,12.80
2023-06-07T06:09:07.013Z,12.80
2023-06-07T06:11:34.735Z,12.70
2023-06-07T06:14:02.691Z,12.70
2023-06-07T06:16:30.590Z,12.70
2023-06-07T06:18:58.359Z,13.00
2023-06-07T06:21:26.005Z,13.20
2023-06-07T06:23:54.453Z,13.30
2023-06-07T06:26:23.154Z,13.20
2023-06-07T06:28:50.735Z,13.20
2023-06-07T06:31:18.407Z,13.30
2023-06-07T06:33:46.468Z,13.40
2023-06-07T06:36:14.200Z,13.40
2023-06-07T06:38:42.021Z,13.60
2023-06-07T06:41:10.802Z,13.70
2023-06-07T06:43:38.618Z,13.80
2023-06-07T06:46:07.162Z,13.80
2023-06-07T06:48:39.311Z,13.90
2023-06-07T06:51:06.966Z,14.00
2023-06-07T06:53:34.509Z,14.00
2023-06-07T06:56:04.306Z,14.10
2023-06-07T06:58:35.817Z,14.20
2023-06-07T07:01:06.838Z,14.30
2023-06-07T07:03:34.545Z,14.40
2023-06-07T07:06:02.168Z,14.40
2023-06-07T07:08:29.846Z,14.50
2023-06-07T07:10:57.554Z,14.70
2023-06-07T07:13:25.172Z,14.70
2023-06-07T07:15:53.273Z,14.80
2023-06-07T07:18:21.290Z,14.90
2023-06-07T07:20:48.916Z,15.00
2023-06-07T07:23:18.192Z,14.90
2023-06-07T07:25:45.919Z,15.10
2023-06-07T07:28:13.597Z,15.30
2023-06-07T07:30:41.176Z,15.30
2023-06-07T07:33:08.817Z,15.50
2023-06-07T07:35:36.524Z,15.60
2023-06-07T07:38:06.408Z,15.50
2023-06-07T07:40:34.108Z,15.60
2023-06-07T07:43:01.700Z,15.60
2023-06-07T07:45:29.310Z,15.70
2023-06-07T07:47:57.057Z,15.90
2023-06-07T07:50:24.739Z,16.00
2023-06-07T07:52:54.888Z,16.20
2023-06-07T07:55:23.942Z,16.30
2023-06-07T07:57:51.647Z,16.40
2023-06-07T08:00:19.464Z,16.60
2023-06-07T08:02:47.385Z,16.70
2023-06-07T08:05:15.088Z,16.60
2023-06-07T08:07:42.823Z,16.60
2023-06-07T08:10:12.456Z,16.60
2023-06-07T08:12:41.078Z,16.70
2023-06-07T08:15:10.191Z,16.80
2023-06-07T08:17:37.792Z,16.90
2023-06-07T08:20:08.603Z,17.00
2023-06-07T08:22:39.290Z,17.10
2023-06-07T08:25:08.356Z,17.30
2023-06-07T08:27:36.924Z,17.60
2023-06-07T08:30:05.606Z,17.70
2023-06-07T08:32:34.038Z,17.50
2023-06-07T08:35:01.953Z,17.70
2023-06-07T08:37:29.642Z,17.90
2023-06-07T08:39:57.275Z,18.00
2023-06-07T08:42:26.314Z,18.30
2023-06-07T08:44:54.833Z,18.50
2023-06-07T08:47:24.797Z,18.60
2023-06-07T08:49:57.155Z,18.50
2023-06-07T08:52:25.672Z,18.80
2023-06-07T08:55:00.444Z,18.90
2023-06-07T08:57:30.917Z,19.30
2023-06-07T09:00:08.538Z,19.40
2023-06-07T09:02:37.886Z,19.70
2023-06-07T09:05:07.455Z,20.10
2023-06-07T09:07:36.565Z,20.40
2023-06-07T09:10:07.072Z,20.50
2023-06-07T09:12:36.554Z,20.50
2023-06-07T09:15:06.194Z,21.00
2023-06-07T09:17:53.007Z,21.30
2023-06-07T09:20:22.862Z,21.20
2023-06-07T09:23:02.026Z,21.20
2023-06-07T09:25:30.162Z,21.30
2023-06-07T09:27:58.710Z,21.50
2023-06-07T09:30:29.405Z,22.00
2023-06-07T09:32:57.064Z,22.00
2023-06-07T09:35:26.570Z,22.20
2023-06-07T09:37:59.106Z,22.00
2023-06-07T09:40:26.900Z,23.00
2023-06-07T09:43:01.222Z,23.40
2023-06-07T09:45:31.730Z,23.70
2023-06-07T09:48:07.277Z,23.90
2023-06-07T09:50:35.158Z,24.10
2023-06-07T09:53:02.966Z,24.30
2023-06-07T09:55:31.504Z,24.80
2023-06-07T09:57:59.479Z,25.30
2023-06-07T10:00:28.912Z,24.10
2023-06-07T10:03:07.316Z,23.70
2023-06-07T10:05:36.117Z,23.80
2023-06-07T10:08:04.641Z,23.70
2023-06-07T10:10:35.929Z,23.80
2023-06-07T10:13:07.232Z,23.70
2023-06-07T10:15:36.851Z,23.70
2023-06-07T10:18:27.601Z,24.10
2023-06-07T10:21:10.748Z,24.00
2023-06-07T10:23:55.250Z,24.60
2023-06-07T10:26:35.025Z,25.40
2023-06-07T10:29:21.313Z,24.50
2023-06-07T10:32:01.771Z,24.20
2023-06-07T10:34:31.353Z,25.30
2023-06-07T10:37:03.015Z,25.50
2023-06-07T10:39:31.052Z,26.60
2023-06-07T10:41:59.418Z,27.20
2023-06-07T10:44:27.352Z,28.10
2023-06-07T10:47:23.449Z,28.50
2023-06-07T10:49:55.363Z,28.10
2023-06-07T10:52:32.464Z,28.50
2023-06-07T10:55:00.750Z,28.90
2023-06-07T10:57:37.661Z,28.70
2023-06-07T11:00:26.370Z,28.60
2023-06-07T11:03:06.362Z,28.00
2023-06-07T11:06:09.986Z,27.80
2023-06-07T11:08:39.300Z,28.20
2023-06-07T11:11:41.262Z,28.50
2023-06-07T11:14:11.080Z,29.00
2023-06-07T11:16:42.547Z,28.90
2023-06-07T11:19:14.160Z,29.20
2023-06-07T11:22:08.256Z,29.00
2023-06-07T11:24:49.733Z,27.10
2023-06-07T11:27:23.416Z,28.10
2023-06-07T11:29:58.158Z,28.90
2023-06-07T11:32:28.696Z,29.30
2023-06-07T11:34:58.215Z,29.90
2023-06-07T11:37:28.982Z,30.20
2023-06-07T11:40:00.745Z,30.80
2023-06-07T11:42:28.511Z,30.50
2023-06-07T11:44:56.083Z,29.20
2023-06-07T11:47:23.954Z,29.50
2023-06-07T11:49:51.738Z,29.90
2023-06-07T11:52:21.156Z,30.40
2023-06-07T11:54:49.740Z,30.70
2023-06-07T11:57:17.397Z,30.60
2023-06-07T11:59:45.957Z,31.10
2023-06-07T12:02:15.964Z,30.00
2023-06-07T12:04:44.612Z,29.80
2023-06-07T12:07:30.515Z,29.00
2023-06-07T12:09:58.179Z,28.80
2023-06-07T12:12:25.847Z,28.70
2023-06-07T12:15:04.107Z,28.40
2023-06-07T12:17:36.725Z,28.20
2023-06-07T12:20:09.326Z,27.50
2023-06-07T12:22:37.067Z,28.10
2023-06-07T12:25:19.439Z,27.50
2023-06-07T12:27:47.940Z,28.00
2023-06-07T12:30:15.681Z,28.10
2023-06-07T12:32:44.617Z,28.00
2023-06-07T12:35:12.474Z,27.70
2023-06-07T12:37:40.146Z,27.50
2023-06-07T12:40:09.187Z,27.20
2023-06-07T12:42:36.862Z,27.00
2023-06-07T12:45:06.871Z,25.40
2023-06-07T12:47:34.880Z,25.40
2023-06-07T12:50:02.570Z,25.60
2023-06-07T12:52:30.201Z,25.40
2023-06-07T12:54:57.814Z,25.10
2023-06-07T12:57:25.398Z,24.70
2023-06-07T12:59:52.961Z,24.30
2023-06-07T13:02:20.861Z,23.90
2023-06-07T13:04:48.472Z,23.50
2023-06-07T13:07:16.062Z,23.70
2023-06-07T13:09:43.675Z,24.10
2023-06-07T13:12:11.679Z,24.50
2023-06-07T13:14:39.307Z,24.70
2023-06-07T13:17:07.782Z,24.40
2023-06-07T13:19:35.561Z,24.80
2023-06-07T13:22:05.682Z,25.00
2023-06-07T13:24:33.915Z,24.80
2023-06-07T13:27:02.713Z,24.20
2023-06-07T13:29:30.423Z,24.00
2023-06-07T13:31:58.063Z,23.80
2023-06-07T13:34:25.695Z,24.00
2023-06-07T13:36:54.819Z,24.20
2023-06-07T13:39:22.473Z,24.60
2023-06-07T13:41:50.153Z,24.90
2023-06-07T13:44:19.029Z,25.00
2023-06-07T13:46:47.330Z,24.90
2023-06-07T13:49:15.805Z,25.00
2023-06-07T13:51:43.549Z,24.40
2023-06-07T13:54:11.191Z,24.20
2023-06-07T13:56:39.037Z,24.20
2023-06-07T13:59:06.942Z,24.20
2023-06-07T14:01:35.305Z,24.00
2023-06-07T14:04:03.143Z,23.60
2023-06-07T14:06:30.866Z,23.30
2023-06-07T14:08:58.485Z,23.10
2023-06-07T14:11:27.045Z,22.90
2023-06-07T14:13:57.775Z,22.60
2023-06-07T14:16:28.169Z,22.50
2023-06-07T14:18:56.846Z,22.70
2023-06-07T14:21:25.409Z,23.40
2023-06-07T14:23:53.037Z,23.90
2023-06-07T14:26:21.232Z,24.00
2023-06-07T14:28:50.370Z,23.40
2023-06-07T14:31:20.328Z,23.30
2023-06-07T14:33:48.232Z,23.20
2023-06-07T14:36:17.702Z,23.10
2023-06-07T14:38:46.015Z,23.40
2023-06-07T14:41:13.662Z,23.80
2023-06-07T14:43:41.371Z,23.20
2023-06-07T14:46:09.116Z,23.30
2023-06-07T14:48:36.755Z,23.30
2023-06-07T14:51:07.276Z,23.20
2023-06-07T14:53:34.865Z,23.80
2023-06-07T14:56:02.440Z,23.40
2023-06-07T14:58:30.370Z,23.10
2023-06-07T15:00:57.982Z,22.80
2023-06-07T15:03:25.701Z,22.60
2023-06-07T15:05:53.716Z,22.40
2023-06-07T15:08:21.773Z,23.00
2023-06-07T15:10:49.468Z,22.90
2023-06-07T15:13:17.049Z,22.40
2023-06-07T15:15:45.050Z,22.30
2023-06-07T15:18:17.636Z,22.10
2023-06-07T15:20:46.366Z,22.80
2023-06-07T15:23:13.949Z,23.50
2023-06-07T15:25:41.974Z,24.20
2023-06-07T15:28:09.908Z,24.50
2023-06-07T15:30:37.542Z,24.50
2023-06-07T15:33:07.348Z,24.10
2023-06-07T15:35:35.167Z,23.70
2023-06-07T15:38:03.234Z,23.40
2023-06-07T15:40:31.188Z,23.30
2023-06-07T15:42:59.057Z,23.10
2023-06-07T15:45:26.741Z,23.10
2023-06-07T15:48:01.712Z,23.10
2023-06-07T15:50:30.444Z,22.90
2023-06-07T15:52:59.072Z,22.70
2023-06-07T15:55:28.924Z,22.50
2023-06-07T15:57:56.836Z,22.20
2023-06-07T16:00:36.725Z,22.10
2023-06-07T16:03:08.625Z,22.00
2023-06-07T16:05:36.740Z,21.70
2023-06-07T16:08:10.244Z,21.40
2023-06-07T16:10:45.419Z,21.30
2023-06-07T16:13:13.027Z,21.10
2023-06-07T16:15:40.922Z,20.80
2023-06-07T16:18:08.739Z,20.70
2023-06-07T16:20:36.458Z,20.50
2023-06-07T16:23:09.346Z,20.30
2023-06-07T16:25:37.844Z,20.10
2023-06-07T16:28:08.373Z,20.10
2023-06-07T16:30:36.738Z,20.10
2023-06-07T16:33:05.836Z,20.00
2023-06-07T16:35:33.932Z,19.80
2023-06-07T16:38:01.544Z,19.70
2023-06-07T16:40:29.928Z,19.60
2023-06-07T16:42:57.552Z,19.50
2023-06-07T16:45:25.170Z,19.40
2023-06-07T16:47:52.892Z,19.40
2023-06-07T16:50:20.529Z,19.30
2023-06-07T16:52:48.180Z,19.30
2023-06-07T16:55:15.897Z,19.30
2023-06-07T16:57:43.469Z,19.30
2023-06-07T17:00:11.629Z,19.30
2023-06-07T17:02:39.483Z,19.40
2023-06-07T17:05:07.700Z,19.30
2023-06-07T17:07:35.455Z,19.40
2023-06-07T17:10:03.582Z,19.40
2023-06-07T17:12:31.656Z,19.40
2023-06-07T17:14:59.300Z,19.40
2023-06-07T17:17:27.109Z,19.40
2023-06-07T17:19:54.866Z,19.50
2023-06-07T17:22:22.483Z,19.50
2023-06-07T17:24:50.162Z,19.40
2023-06-07T17:27:17.806Z,19.30
2023-06-07T17:29:45.641Z,19.30
2023-06-07T17:32:13.486Z,19.20
2023-06-07T17:34:41.275Z,19.20
2023-06-07T17:37:10.233Z,19.20
2023-06-07T17:39:38.412Z,18.90
2023-06-07T17:42:07.452Z,18.80
2023-06-07T17:44:35.005Z,18.80
2023-06-07T17:47:04.977Z,18.80
2023-06-07T17:49:32.558Z,18.70
2023-06-07T17:52:06.347Z,18.70
2023-06-07T17:54:47.650Z,18.60
2023-06-07T17:57:18.418Z,18.60
2023-06-07T17:59:46.130Z,18.50
2023-06-07T18:02:13.683Z,18.50
2023-06-07T18:04:41.300Z,18.40
2023-06-07T18:07:09.463Z,18.30
2023-06-07T18:09:38.525Z,18.30
2023-06-07T18:12:12.053Z,18.30
2023-06-07T18:14:41.595Z,18.30
2023-06-07T18:17:10.071Z,18.20
2023-06-07T18:19:37.973Z,18.20
2023-06-07T18:22:06.178Z,18.10
2023-06-07T18:24:34.058Z,18.00
2023-06-07T18:27:02.090Z,18.00
2023-06-07T18:29:29.942Z,17.90
2023-06-07T18:31:57.742Z,17.80
2023-06-07T18:34:25.618Z,17.80
2023-06-07T18:36:53.625Z,17.70
2023-06-07T18:39:23.967Z,17.70
2023-06-07T18:41:52.201Z,17.60
2023-06-07T18:44:19.856Z,17.60
2023-06-07T18:46:47.733Z,17.50
2023-06-07T18:49:15.441Z,17.50
2023-06-07T18:51:43.120Z,17.40
2023-06-07T18:54:10.832Z,17.30
2023-06-07T18:56:38.534Z,17.30
2023-06-07T18:59:06.459Z,17.30
2023-06-07T19:01:50.047Z,17.20
2023-06-07T19:04:19.114Z,17.20
2023-06-07T19:06:50.460Z,17.20
2023-06-07T19:09:19.495Z,17.20
2023-06-07T19:11:47.134Z,17.20
2023-06-07T19:14:16.237Z,17.10
2023-06-07T19:16:43.994Z,17.10
2023-06-07T19:19:12.085Z,17.10
2023-06-07T19:21:40.159Z,17.00
2023-06-07T19:24:08.169Z,17.00
2023-06-07T19:26:35.952Z,16.90
2023-06-07T19:29:04.131Z,16.90
2023-06-07T19:31:33.778Z,16.80
2023-06-07T19:34:01.871Z,16.80
2023-06-07T19:36:29.519Z,16.70
2023-06-07T19:38:57.127Z,16.70
2023-06-07T19:41:24.774Z,16.60
2023-06-07T19:43:52.416Z,16.50
2023-06-07T19:46:20.376Z,16.50
2023-06-07T19:48:48.124Z,16.40
2023-06-07T19:51:16.031Z,16.30
2023-06-07T19:53:43.731Z,16.30
2023-06-07T19:56:11.334Z,16.20
2023-06-07T19:58:39.075Z,16.20
2023-06-07T20:01:06.714Z,16.20
2023-06-07T20:03:34.293Z,16.20
2023-06-07T20:06:03.064Z,16.20
2023-06-07T20:08:30.718Z,16.10
2023-06-07T20:10:58.341Z,16.10
2023-06-07T20:13:26.037Z,16.00
2023-06-07T20:15:53.809Z,16.00
2023-06-07T20:18:21.485Z,16.00
2023-06-07T20:20:49.133Z,16.00
2023-06-07T20:23:16.908Z,15.90
2023-06-07T20:25:44.641Z,15.80
2023-06-07T20:28:12.563Z,15.80
2023-06-07T20:30:40.393Z,15.90
2023-06-07T20:33:08.573Z,15.70
2023-06-07T20:35:36.256Z,15.70
2023-06-07T20:38:03.837Z,15.70
2023-06-07T20:40:31.493Z,15.50
2023-06-07T20:42:59.285Z,15.50
2023-06-07T20:45:27.041Z,15.40
2023-06-07T20:47:54.881Z,15.30
2023-06-07T20:50:22.538Z,15.30
2023-06-07T20:52:50.268Z,15.40
2023-06-07T20:55:17.870Z,15.40
2023-06-07T20:57:45.584Z,15.20
2023-06-07T21:00:14.133Z,15.10
2023-06-07T21:02:42.281Z,15.20
2023-06-07T21:05:10.020Z,15.10
2023-06-07T21:07:37.618Z,15.20
2023-06-07T21:10:05.822Z,15.20
2023-06-07T21:12:33.717Z,15.10
2023-06-07T21:15:01.412Z,15.00
2023-06-07T21:17:29.098Z,15.00
2023-06-07T21:19:57.082Z,15.00
2023-06-07T21:22:24.741Z,15.10
2023-06-07T21:24:53.138Z,15.10
2023-06-07T21:27:20.892Z,15.00
2023-06-07T21:29:50.182Z,15.00
2023-06-07T21:32:17.853Z,15.00
2023-06-07T21:34:45.515Z,15.00
2023-06-07T21:37:13.835Z,14.90
2023-06-07T21:39:41.906Z,14.80
2023-06-07T21:42:09.784Z,14.70
2023-06-07T21:44:37.486Z,14.70
2023-06-07T21:47:05.746Z,14.70
2023-06-07T21:49:33.414Z,14.70
2023-06-07T21:52:01.124Z,14.70
2023-06-07T21:54:28.851Z,14.60
2023-06-07T21:56:56.951Z,14.50
2023-06-07T21:59:24.612Z,14.40
2023-06-07T22:01:52.333Z,14.50
2023-06-07T22:04:20.069Z,14.40
2023-06-07T22:06:47.755Z,14.40
2023-06-07T22:09:15.395Z,14.30
2023-06-07T22:11:46.118Z,14.30
2023-06-07T22:14:17.686Z,14.20
2023-06-07T22:16:46.332Z,14.20
2023-06-07T22:19:15.986Z,14.10
2023-06-07T22:21:43.756Z,13.90
2023-06-07T22:24:11.477Z,13.90
2023-06-07T22:26:39.763Z,14.00
2023-06-07T22:29:07.603Z,14.00
2023-06-07T22:31:37.764Z,13.90
2023-06-07T22:34:05.907Z,13.90
2023-06-07T22:36:39.065Z,13.90
2023-06-07T22:39:11.347Z,13.80
2023-06-07T22:41:39.479Z,13.80
2023-06-07T22:44:08.235Z,13.80
2023-06-07T22:46:38.934Z,13.70
2023-06-07T22:49:06.931Z,13.70
2023-06-07T22:51:34.891Z,13.70
2023-06-07T22:54:06.292Z,13.70
2023-06-07T22:56:34.084Z,13.70
2023-06-07T22:59:01.696Z,13.60
2023-06-07T23:01:32.748Z,13.70
2023-06-07T23:04:01.971Z,13.70
2023-06-07T23:06:36.239Z,13.60
2023-06-07T23:09:04.799Z,13.60
2023-06-07T23:11:34.879Z,13.70
2023-06-07T23:14:03.787Z,13.60
2023-06-07T23:16:31.540Z,13.60
2023-06-07T23:19:03.289Z,13.60
2023-06-07T23:21:32.274Z,13.70
2023-06-07T23:24:00.039Z,13.60
2023-06-07T23:26:27.741Z,13.60
2023-06-07T23:28:55.547Z,13.60
2023-06-07T23:31:23.341Z,13.60
2023-06-07T23:33:51.054Z,13.50
2023-06-07T23:36:21.393Z,13.50
2023-06-07T23:38:49.015Z,13.60
2023-06-07T23:41:16.718Z,13.50
2023-06-07T23:43:44.342Z,13.50
2023-06-07T23:46:13.065Z,13.50
2023-06-07T23:48:41.088Z,13.60
2023-06-07T23:51:08.694Z,13.60
2023-06-07T23:53:36.335Z,13.60
2023-06-07T23:56:04.115Z,13.60
2023-06-07T23:58:31.775Z,13.60
